Time;durP1;ratioP1;P1;durP2;ratioP2;P2;SDS_P1;SDS_P2;PMS_P1;PMS_P2;Temp;Humidity;BMP_temperature;BMP_pressure;BME280_temperature;BME280_humidity;BME280_pressure;Samples;Min_cycle;Max_cycle;Signal;HPM_P1;HPM_P2
2022/07/07 00:00:10;;;;;;;;;;;;;;;;;;5017223;28;19940;-24
2022/07/07 00:02:38;;;;;;;;;;;;;;;;;;5016547;28;19909;-24
2022/07/07 00:05:06;;;;;;;;;;;;;;;;;;5017174;28;20358;-24
2022/07/07 00:07:33;;;;;;;;;;;;;;;;;;5016444;28;19992;-24
2022/07/07 00:10:01;;;;;;;;;;;;;;;;;;5016553;28;20005;-24
2022/07/07 00:12:28;;;;;;;;;;;;;;;;;;5017202;28;19917;-24
2022/07/07 00:14:56;;;;;;;;;;;;;;;;;;5017255;28;19944;-24
2022/07/07 00:17:24;;;;;;;;;;;;;;;;;;5015682;28;19921;-24
2022/07/07 00:19:57;;;;;;;;;;;;;;;;;;5015301;28;20000;-24
2022/07/07 00:25:14;;;;;;;;;;;;;;;;;;5017902;28;19936;-24
2022/07/07 00:27:41;;;;;;;;;;;;;;;;;;5016848;28;19986;-24
2022/07/07 00:30:10;;;;;;;;;;;;;;;;;;5017683;28;19924;-24
2022/07/07 00:32:38;;;;;;;;;;;;;;;;;;5017389;28;19974;-24
2022/07/07 00:35:04;;;;;;;;;;;;;;;;;;5018186;28;19925;-24
2022/07/07 00:37:33;;;;;;;;;;;;;;;;;;5017391;28;19917;-24
2022/07/07 00:54:06;;;;;;;;;;;;;;;;;;5058332;22;19937;-24
2022/07/07 00:56:35;;;;;;;;;;;;;;;;;;5037495;28;19913;-24
2022/07/07 00:59:06;;;;;;;;;;;;;;;;;;5037789;28;19925;-24
2022/07/07 01:01:33;;;;;;;;;;;;;;;;;;5036227;28;19913;-24
2022/07/07 01:04:02;;;;;;;;;;;;;;;;;;5035418;28;19975;-24
2022/07/07 01:06:30;;;;;;;;;;;;;;;;;;5035251;28;20298;-24
2022/07/07 01:08:58;;;;;;;;;;;;;;;;;;5035768;28;19975;-24
2022/07/07 01:11:27;;;;;;;;;;;;;;;;;;5037451;28;20251;-23
2022/07/07 01:13:54;;;;;;;;;;;;;;;;;;5019556;28;20351;-24
2022/07/07 01:16:21;;;;;;;;;;;;;;;;;;5019760;28;19944;-25
2022/07/07 01:18:48;;;;;;;;;;;;;;;;;;5036599;28;19921;-24
2022/07/07 01:21:14;;;;;;;;;;;;;;;;;;5036737;28;19913;-24
2022/07/07 01:23:43;;;;;;;;;;;;;;;;;;5036755;28;19909;-24
2022/07/07 01:26:10;;;;;;;;;;;;;;;;;;5036626;28;19924;-24
2022/07/07 01:28:37;;;;;;;;;;;;;;;;;;5019054;28;19909;-24
2022/07/07 01:31:07;;;;;;;;;;;;;;;;;;5036914;28;19964;-24
2022/07/07 01:33:33;;;;;;;;;;;;;;;;;;5036645;28;20344;-23
2022/07/07 01:36:00;;;;;;;;;;;;;;;;;;5018964;28;19924;-24
2022/07/07 01:38:27;;;;;;;;;;;;;;;;;;5036455;28;19917;-24
2022/07/07 01:40:55;;;;;;;;;;;;;;;;;;5036630;28;19913;-24
2022/07/07 01:43:22;;;;;;;;;;;;;;;;;;5019089;28;19913;-23
2022/07/07 01:45:51;;;;;;;;;;;;;;;;;;5018265;28;20016;-23
2022/07/07 01:48:18;;;;;;;;;;;;;;;;;;5017639;28;20248;-24
2022/07/07 01:50:45;;;;;;;;;;;;;;;;;;5018040;28;20326;-23
2022/07/07 01:53:12;;;;;;;;;;;;;;;;;;5034399;28;20283;-23
2022/07/07 01:55:40;;;;;;;;;;;;;;;;;;5017212;28;19913;-23
2022/07/07 01:58:07;;;;;;;;;;;;;;;;;;5018277;28;20056;-23
2022/07/07 02:00:36;;;;;;;;;;;;;;;;;;5036854;28;19917;-24
2022/07/07 02:03:03;;;;;;;;;;;;;;;;;;5036100;28;19913;-24
2022/07/07 02:05:30;;;;;;;;;;;;;;;;;;5036648;28;19921;-24
2022/07/07 02:08:01;;;;;;;;;;;;;;;;;;5036124;28;19909;-23
2022/07/07 02:13:14;;;;;;;;;;;;;;;;;;5037122;28;20359;-23
2022/07/07 02:15:41;;;;;;;;;;;;;;;;;;5019347;28;20259;-23
2022/07/07 02:18:09;;;;;;;;;;;;;;;;;;5018580;28;19913;-24
2022/07/07 02:20:37;;;;;;;;;;;;;;;;;;5036453;28;19917;-24
2022/07/07 02:23:05;;;;;;;;;;;;;;;;;;5035975;28;19917;-23
2022/07/07 02:25:32;;;;;;;;;;;;;;;;;;5019125;28;20358;-24
2022/07/07 02:27:59;;;;;;;;;;;;;;;;;;5036830;28;19972;-23
2022/07/07 02:30:26;;;;;;;;;;;;;;;;;;5036176;28;20237;-24
2022/07/07 02:32:54;;;;;;;;;;;;;;;;;;5036525;28;20000;-23
2022/07/07 02:35:21;;;;;;;;;;;;;;;;;;5035554;28;19913;-23
2022/07/07 02:37:48;;;;;;;;;;;;;;;;;;5034665;28;19914;-24
2022/07/07 02:40:20;;;;;;;;;;;;;;;;;;5034950;28;19913;-24
2022/07/07 02:42:47;;;;;;;;;;;;;;;;;;5034503;28;19909;-24
2022/07/07 02:45:14;;;;;;;;;;;;;;;;;;5036208;28;19925;-23
2022/07/07 02:47:42;;;;;;;;;;;;;;;;;;5038064;28;19920;-24
2022/07/07 02:50:09;;;;;;;;;;;;;;;;;;5040133;28;19913;-24
2022/07/07 02:52:36;;;;;;;;;;;;;;;;;;5039259;28;19963;-24
2022/07/07 02:55:03;;;;;;;;;;;;;;;;;;5022644;28;19924;-24
2022/07/07 02:57:34;;;;;;;;;;;;;;;;;;5040438;28;19913;-23
2022/07/07 03:00:02;;;;;;;;;;;;;;;;;;5022250;28;19924;-23
2022/07/07 03:02:32;;;;;;;;;;;;;;;;;;5039487;28;19917;-24
2022/07/07 03:04:59;;;;;;;;;;;;;;;;;;5022247;28;19913;-24
2022/07/07 03:07:26;;;;;;;;;;;;;;;;;;5021811;28;20358;-23
2022/07/07 03:09:53;;;;;;;;;;;;;;;;;;5021929;28;19961;-23
2022/07/07 03:12:20;;;;;;;;;;;;;;;;;;5021483;28;19920;-24
2022/07/07 03:14:47;;;;;;;;;;;;;;;;;;5021818;28;20343;-24
2022/07/07 03:17:14;;;;;;;;;;;;;;;;;;5040121;28;19913;-24
2022/07/07 03:19:42;;;;;;;;;;;;;;;;;;5039040;28;19921;-24
2022/07/07 03:22:08;;;;;;;;;;;;;;;;;;5039055;28;19945;-25
2022/07/07 03:24:36;;;;;;;;;;;;;;;;;;5039173;28;20351;-24
2022/07/07 03:27:03;;;;;;;;;;;;;;;;;;5037624;28;19924;-24
2022/07/07 03:29:31;;;;;;;;;;;;;;;;;;5038285;28;19928;-24
2022/07/07 03:31:58;;;;;;;;;;;;;;;;;;5037263;28;19917;-24
2022/07/07 03:34:25;;;;;;;;;;;;;;;;;;5037859;28;19913;-24
2022/07/07 03:36:53;;;;;;;;;;;;;;;;;;5037177;28;19909;-24
2022/07/07 03:39:20;;;;;;;;;;;;;;;;;;5038477;28;19970;-24
2022/07/07 03:41:47;;;;;;;;;;;;;;;;;;5038391;28;20328;-24
2022/07/07 03:44:14;;;;;;;;;;;;;;;;;;5038916;28;19944;-23
2022/07/07 03:46:41;;;;;;;;;;;;;;;;;;5021199;28;20022;-23
2022/07/07 03:49:09;;;;;;;;;;;;;;;;;;5038596;28;19921;-23
2022/07/07 03:51:36;;;;;;;;;;;;;;;;;;5020984;28;20318;-23
2022/07/07 03:54:03;;;;;;;;;;;;;;;;;;5038747;28;19932;-23
2022/07/07 03:56:32;;;;;;;;;;;;;;;;;;5038832;28;20263;-23
2022/07/07 03:59:00;;;;;;;;;;;;;;;;;;5039446;28;19939;-23
2022/07/07 04:04:09;;;;;;;;;;;;;;;;;;5086401;22;20393;-23
2022/07/07 04:06:36;;;;;;;;;;;;;;;;;;5039478;28;19913;-23
2022/07/07 04:09:04;;;;;;;;;;;;;;;;;;5039442;28;19909;-24
2022/07/07 04:11:32;;;;;;;;;;;;;;;;;;5038232;28;19928;-23
2022/07/07 04:13:59;;;;;;;;;;;;;;;;;;5021237;28;19913;-24
2022/07/07 04:16:28;;;;;;;;;;;;;;;;;;5038646;28;19952;-24
2022/07/07 04:18:55;;;;;;;;;;;;;;;;;;5037881;28;19917;-24
2022/07/07 04:21:22;;;;;;;;;;;;;;;;;;5020786;28;19910;-24
2022/07/07 04:23:49;;;;;;;;;;;;;;;;;;5020387;28;20283;-24
2022/07/07 04:26:17;;;;;;;;;;;;;;;;;;5020970;28;20335;-24
2022/07/07 04:28:44;;;;;;;;;;;;;;;;;;5020761;28;20007;-25
2022/07/07 04:31:13;;;;;;;;;;;;;;;;;;5020344;28;20361;-24
2022/07/07 04:33:39;;;;;;;;;;;;;;;;;;5038211;28;20309;-24
2022/07/07 04:36:07;;;;;;;;;;;;;;;;;;5019969;28;19913;-25
2022/07/07 04:38:35;;;;;;;;;;;;;;;;;;5020292;28;20007;-25
2022/07/07 04:41:02;;;;;;;;;;;;;;;;;;5019874;28;19913;-25
2022/07/07 04:43:29;;;;;;;;;;;;;;;;;;5037385;28;19940;-25
2022/07/07 04:54:23;;;;;;;;;;;;;;;;;;5036837;28;19924;-25
2022/07/07 04:57:05;;;;;;;;;;;;;;;;;;5039463;28;19959;-24
2022/07/07 04:59:40;;;;;;;;;;;;;;;;;;5039572;28;19909;-24
2022/07/07 05:02:10;;;;;;;;;;;;;;;;;;5021931;28;19952;-24
2022/07/07 05:04:38;;;;;;;;;;;;;;;;;;5039338;28;19922;-25
2022/07/07 05:07:05;;;;;;;;;;;;;;;;;;5020149;28;20204;-24
2022/07/07 05:09:35;;;;;;;;;;;;;;;;;;5038659;28;19920;-25
2022/07/07 05:14:49;;;;;;;;;;;;;;;;;;5036143;28;19924;-25
2022/07/07 05:20:12;;;;;;;;;;;;;;;;;;5039774;28;19967;-24
2022/07/07 05:25:30;;;;;;;;;;;;;;;;;;5041211;28;19928;-25
2022/07/07 05:28:08;;;;;;;;;;;;;;;;;;5040863;28;19917;-24
2022/07/07 05:30:48;;;;;;;;;;;;;;;;;;5023376;28;19913;-26
2022/07/07 05:47:34;;;;;;;;;;;;;;;;;;5467977;22;19932;-24
2022/07/07 05:50:07;;;;;;;;;;;;;;;;;;5040000;28;20392;-24
2022/07/07 05:52:41;;;;;;;;;;;;;;;;;;5038839;28;19913;-24
2022/07/07 05:55:12;;;;;;;;;;;;;;;;;;5019872;28;19996;-24
2022/07/07 05:57:41;;;;;;;;;;;;;;;;;;5020784;28;19921;-24
2022/07/07 06:03:00;;;;;;;;;;;;;;;;;;5039318;28;19924;-24
2022/07/07 06:05:27;;;;;;;;;;;;;;;;;;5038468;28;20002;-23
2022/07/07 06:07:55;;;;;;;;;;;;;;;;;;5035185;28;19909;-24
2022/07/07 06:10:24;;;;;;;;;;;;;;;;;;5018145;28;20017;-24
2022/07/07 06:12:56;;;;;;;;;;;;;;;;;;5032324;28;19909;-24
2022/07/07 06:15:33;;;;;;;;;;;;;;;;;;5038709;28;20000;-23
2022/07/07 06:20:52;;;;;;;;;;;;;;;;;;5040320;28;20366;-24
2022/07/07 06:23:23;;;;;;;;;;;;;;;;;;5040753;28;19913;-24
2022/07/07 06:26:02;;;;;;;;;;;;;;;;;;5041350;28;20010;-24
2022/07/07 06:34:19;;;;;;;;;;;;;;;;;;5040472;28;19967;-24
2022/07/07 06:39:31;;;;;;;;;;;;;;;;;;4723453;26;20324;-24
2022/07/07 06:41:59;;;;;;;;;;;;;;;;;;5003328;28;19914;-24
2022/07/07 06:44:33;;;;;;;;;;;;;;;;;;5001899;28;19914;-24
2022/07/07 06:50:03;;;;;;;;;;;;;;;;;;5022802;28;19992;-25
2022/07/07 06:52:38;;;;;;;;;;;;;;;;;;5021812;28;20406;-24
2022/07/07 06:55:10;;;;;;;;;;;;;;;;;;5021413;28;19924;-24
2022/07/07 06:57:41;;;;;;;;;;;;;;;;;;5022397;28;19913;-24
2022/07/07 07:00:10;;;;;;;;;;;;;;;;;;5022848;28;19941;-24
2022/07/07 07:02:37;;;;;;;;;;;;;;;;;;5022019;28;20089;-24
2022/07/07 07:05:12;;;;;;;;;;;;;;;;;;5005718;28;19914;-25
2022/07/07 07:07:45;;;;;;;;;;;;;;;;;;5021209;28;19993;-25
2022/07/07 07:13:09;;;;;;;;;;;;;;;;;;4939461;29;19911;-25
2022/07/07 07:15:39;;;;;;;;;;;;;;;;;;5016046;28;19913;-24
2022/07/07 07:18:21;;;;;;;;;;;;;;;;;;5015206;28;19913;-25
2022/07/07 07:23:46;;;;;;;;;;;;;;;;;;5021306;28;19979;-25
2022/07/07 07:28:53;;;;;;;;;;;;;;;;;;5159058;23;19997;-25
2022/07/07 07:31:27;;;;;;;;;;;;;;;;;;5002397;28;20232;-25
2022/07/07 07:48:06;;;;;;;;;;;;;;;;;;5461666;23;19951;-24
2022/07/07 07:53:42;;;;;;;;;;;;;;;;;;5019175;28;19960;-24
2022/07/07 08:18:43;;;;;;;;;;;;;;;;;;5297524;23;19987;-23
2022/07/07 08:21:23;;;;;;;;;;;;;;;;;;5019280;28;19913;-23
2022/07/07 08:23:55;;;;;;;;;;;;;;;;;;5022344;28;19909;-23
2022/07/07 08:26:24;;;;;;;;;;;;;;;;;;5040870;28;19923;-23
2022/07/07 08:29:01;;;;;;;;;;;;;;;;;;5040213;28;19913;-25
2022/07/07 08:31:30;;;;;;;;;;;;;;;;;;5040251;28;20371;-26
2022/07/07 08:34:10;;;;;;;;;;;;;;;;;;5023423;28;20414;-26
2022/07/07 08:36:47;;;;;;;;;;;;;;;;;;5022787;28;19920;-26
2022/07/07 08:39:22;;;;;;;;;;;;;;;;;;5021118;28;19914;-26
2022/07/07 08:50:26;;;;;;;;;;;;;;;;;;5039514;28;19968;-24
2022/07/07 08:52:57;;;;;;;;;;;;;;;;;;5040288;28;19920;-26
2022/07/07 08:55:39;;;;;;;;;;;;;;;;;;5038714;28;20054;-25
2022/07/07 08:58:27;;;;;;;;;;;;;;;;;;5021595;28;19920;-26
2022/07/07 09:03:51;;;;;;;;;;;;;;;;;;5297100;22;20305;-24
2022/07/07 09:06:25;;;;;;;;;;;;;;;;;;5019398;28;19913;-24
2022/07/07 09:14:49;;;;;;;;;;;;;;;;;;5020079;28;19923;-24
2022/07/07 09:20:20;;;;;;;;;;;;;;;;;;5018752;28;19979;-25
2022/07/07 09:34:21;;;;;;;;;;;;;;;;;;5020106;28;19925;-24
2022/07/07 09:39:29;;;;;;;;;;;;;;;;;;4245440;26;19932;-24
2022/07/07 09:44:49;;;;;;;;;;;;;;;;;;5039313;28;19920;-25
2022/07/07 09:50:08;;;;;;;;;;;;;;;;;;5039402;28;19948;-25
2022/07/07 09:52:44;;;;;;;;;;;;;;;;;;5020086;28;19913;-25
2022/07/07 09:55:14;;;;;;;;;;;;;;;;;;5024115;28;19916;-25
2022/07/07 09:57:49;;;;;;;;;;;;;;;;;;5039432;28;19925;-24
2022/07/07 10:00:18;;;;;;;;;;;;;;;;;;5040107;28;19944;-24
2022/07/07 10:02:54;;;;;;;;;;;;;;;;;;5024755;28;19971;-24
2022/07/07 10:05:33;;;;;;;;;;;;;;;;;;5042493;28;19980;-24
2022/07/07 10:10:58;;;;;;;;;;;;;;;;;;5042581;28;19924;-25
2022/07/07 10:16:23;;;;;;;;;;;;;;;;;;5042486;28;19968;-25
2022/07/07 10:19:00;;;;;;;;;;;;;;;;;;5041253;28;19917;-24
2022/07/07 10:21:29;;;;;;;;;;;;;;;;;;5024300;28;20275;-24
2022/07/07 10:29:40;;;;;;;;;;;;;;;;;;5042030;28;20000;-25
2022/07/07 10:32:12;;;;;;;;;;;;;;;;;;5023677;28;19971;-25
2022/07/07 10:34:56;;;;;;;;;;;;;;;;;;5041974;28;19956;-25
2022/07/07 10:37:28;;;;;;;;;;;;;;;;;;5041638;28;19913;-25
2022/07/07 10:40:02;;;;;;;;;;;;;;;;;;5005737;28;19932;-25
2022/07/07 10:42:38;;;;;;;;;;;;;;;;;;5003708;28;19948;-24
2022/07/07 10:48:32;;;;;;;;;;;;;;;;;;5023928;28;19968;-24
2022/07/07 10:51:03;;;;;;;;;;;;;;;;;;5020597;28;19925;-25
2022/07/07 10:56:24;;;;;;;;;;;;;;;;;;5021843;28;19923;-30
2022/07/07 10:58:57;;;;;;;;;;;;;;;;;;5022869;28;19929;-25
2022/07/07 11:04:21;;;;;;;;;;;;;;;;;;5021923;28;19920;-24
2022/07/07 11:06:53;;;;;;;;;;;;;;;;;;5020257;28;19926;-25
2022/07/07 11:09:26;;;;;;;;;;;;;;;;;;5003730;28;19960;-25
2022/07/07 11:11:55;;;;;;;;;;;;;;;;;;5022664;28;19914;-25
2022/07/07 11:14:26;;;;;;;;;;;;;;;;;;5003013;28;19913;-25
2022/07/07 11:19:55;;;;;;;;;;;;;;;;;;5019887;28;19981;-24
2022/07/07 11:36:40;;;;;;;;;;;;;;;;;;5020949;28;19928;-25
2022/07/07 11:47:38;;;;;;;;;;;;;;;;;;5040746;28;19920;-24
2022/07/07 11:50:12;;;;;;;;;;;;;;;;;;5021580;28;19914;-25
2022/07/07 12:23:51;;;;;;;;;;;;;;;;;;5040334;28;19975;-26
2022/07/07 12:26:26;;;;;;;;;;;;;;;;;;5039996;28;19913;-25
2022/07/07 12:28:55;;;;;;;;;;;;;;;;;;5039624;28;19920;-25
2022/07/07 12:31:28;;;;;;;;;;;;;;;;;;5040677;28;19939;-26
2022/07/07 12:34:04;;;;;;;;;;;;;;;;;;5038428;28;19992;-26
2022/07/07 12:36:40;;;;;;;;;;;;;;;;;;5040171;28;19935;-25
2022/07/07 12:39:13;;;;;;;;;;;;;;;;;;5021297;28;19928;-25
2022/07/07 12:44:39;;;;;;;;;;;;;;;;;;5039693;28;19937;-25
2022/07/07 12:47:15;;;;;;;;;;;;;;;;;;5038868;28;20352;-25
2022/07/07 12:49:42;;;;;;;;;;;;;;;;;;5039514;28;19913;-25
2022/07/07 12:52:13;;;;;;;;;;;;;;;;;;5040218;28;19971;-26
2022/07/07 12:54:47;;;;;;;;;;;;;;;;;;5038876;28;19925;-25
2022/07/07 12:57:19;;;;;;;;;;;;;;;;;;5021088;28;19976;-25
2022/07/07 12:59:47;;;;;;;;;;;;;;;;;;5022465;28;19913;-25
2022/07/07 13:05:07;;;;;;;;;;;;;;;;;;5039301;28;19927;-25
2022/07/07 13:07:39;;;;;;;;;;;;;;;;;;5021529;28;19913;-26
2022/07/07 13:10:18;;;;;;;;;;;;;;;;;;5038862;28;20336;-26
2022/07/07 13:12:55;;;;;;;;;;;;;;;;;;5036790;28;19909;-26
2022/07/07 13:15:22;;;;;;;;;;;;;;;;;;5038709;28;20260;-26
2022/07/07 13:17:51;;;;;;;;;;;;;;;;;;5040266;28;19913;-26
2022/07/07 13:20:27;;;;;;;;;;;;;;;;;;5039408;28;19929;-26
2022/07/07 13:25:51;;;;;;;;;;;;;;;;;;5039927;28;19975;-25
2022/07/07 13:34:00;;;;;;;;;;;;;;;;;;5184700;22;19924;-23
2022/07/07 13:36:41;;;;;;;;;;;;;;;;;;5038273;28;19921;-23
2022/07/07 13:39:34;;;;;;;;;;;;;;;;;;5020954;28;19913;-24
2022/07/07 13:42:34;;;;;;;;;;;;;;;;;;5017761;28;20560;-25
2022/07/07 13:47:53;;;;;;;;;;;;;;;;;;5019405;28;19959;-25
2022/07/07 14:04:22;;;;;;;;;;;;;;;;;;4599312;26;19926;-24
2022/07/07 14:23:49;;;;;;;;;;;;;;;;;;5160649;23;20273;-24
2022/07/07 14:29:03;;;;;;;;;;;;;;;;;;5016193;28;19932;-24
2022/07/07 14:31:33;;;;;;;;;;;;;;;;;;5019217;28;19928;-23
2022/07/07 14:34:02;;;;;;;;;;;;;;;;;;5013037;28;19910;-23
2022/07/07 14:36:30;;;;;;;;;;;;;;;;;;5013060;28;19936;-24
2022/07/07 14:38:57;;;;;;;;;;;;;;;;;;5012663;28;19918;-25
2022/07/07 14:41:24;;;;;;;;;;;;;;;;;;5000280;28;19993;-24
2022/07/07 14:43:52;;;;;;;;;;;;;;;;;;5015929;28;20024;-24
2022/07/07 14:49:05;;;;;;;;;;;;;;;;;;5001808;28;19920;-25
2022/07/07 14:51:33;;;;;;;;;;;;;;;;;;5015674;28;19917;-24
2022/07/07 14:56:51;;;;;;;;;;;;;;;;;;5000284;28;19972;-31
2022/07/07 14:59:23;;;;;;;;;;;;;;;;;;5000773;28;20348;-25
2022/07/07 15:01:50;;;;;;;;;;;;;;;;;;5002102;28;19914;-24
2022/07/07 15:04:18;;;;;;;;;;;;;;;;;;4999737;28;20352;-25
2022/07/07 15:23:43;;;;;;;;;;;;;;;;;;5218404;23;19930;-21
2022/07/07 15:26:11;;;;;;;;;;;;;;;;;;4980690;28;19913;-22
2022/07/07 15:28:37;;;;;;;;;;;;;;;;;;4998114;28;19974;-21
2022/07/07 15:31:04;;;;;;;;;;;;;;;;;;4997689;28;19910;-22
2022/07/07 15:33:31;;;;;;;;;;;;;;;;;;4997296;28;19967;-22
2022/07/07 15:35:58;;;;;;;;;;;;;;;;;;4980635;28;19910;-22
2022/07/07 15:38:25;;;;;;;;;;;;;;;;;;4997922;28;19929;-21
2022/07/07 15:40:52;;;;;;;;;;;;;;;;;;4980926;28;20412;-22
2022/07/07 15:43:19;;;;;;;;;;;;;;;;;;4997986;28;19918;-21
2022/07/07 15:45:46;;;;;;;;;;;;;;;;;;4980624;28;19913;-21
2022/07/07 15:48:28;;;;;;;;;;;;;;;;;;;;;
2022/07/07 15:51:02;;;;;;;;;;;;;;;;;;4998194;28;20256;-22
2022/07/07 15:53:31;;;;;;;;;;;;;;;;;;4980633;28;19914;-21
2022/07/07 15:55:59;;;;;;;;;;;;;;;;;;4997316;28;19914;-21
2022/07/07 15:58:27;;;;;;;;;;;;;;;;;;4980400;28;20008;-21
2022/07/07 16:00:54;;;;;;;;;;;;;;;;;;4998059;28;19913;-21
2022/07/07 16:06:14;;;;;;;;;;;;;;;;;;4999488;28;20411;-21
2022/07/07 16:08:42;;;;;;;;;;;;;;;;;;4999523;28;19965;-21
2022/07/07 16:11:09;;;;;;;;;;;;;;;;;;4998882;28;19922;-21
2022/07/07 16:13:35;;;;;;;;;;;;;;;;;;4982565;28;19913;-21
2022/07/07 16:16:03;;;;;;;;;;;;;;;;;;4982103;28;19968;-21
2022/07/07 16:18:29;;;;;;;;;;;;;;;;;;4999064;28;19922;-21
2022/07/07 16:20:56;;;;;;;;;;;;;;;;;;4999453;28;19925;-21
2022/07/07 16:23:24;;;;;;;;;;;;;;;;;;4998680;28;19952;-22
2022/07/07 16:25:51;;;;;;;;;;;;;;;;;;4999707;28;19925;-22
2022/07/07 16:28:19;;;;;;;;;;;;;;;;;;4999210;28;19972;-21
2022/07/07 16:30:46;;;;;;;;;;;;;;;;;;4999472;28;19924;-21
2022/07/07 16:33:15;;;;;;;;;;;;;;;;;;4985809;28;19910;-21
2022/07/07 16:35:45;;;;;;;;;;;;;;;;;;5001896;28;20000;-23
2022/07/07 16:38:16;;;;;;;;;;;;;;;;;;5002718;28;20384;-22
2022/07/07 16:40:52;;;;;;;;;;;;;;;;;;5001510;28;20275;-22
2022/07/07 16:43:19;;;;;;;;;;;;;;;;;;4998705;28;19910;-22
2022/07/07 16:45:46;;;;;;;;;;;;;;;;;;4981522;28;19944;-22
2022/07/07 16:48:15;;;;;;;;;;;;;;;;;;4981227;28;20333;-22
2022/07/07 16:50:53;;;;;;;;;;;;;;;;;;4998200;28;20052;-21
2022/07/07 16:53:20;;;;;;;;;;;;;;;;;;4998544;28;19910;-22
2022/07/07 16:55:47;;;;;;;;;;;;;;;;;;4998552;28;20314;-22
2022/07/07 16:58:15;;;;;;;;;;;;;;;;;;4980991;28;19914;-22
2022/07/07 17:00:43;;;;;;;;;;;;;;;;;;4998411;28;19918;-22
2022/07/07 17:03:10;;;;;;;;;;;;;;;;;;4981466;28;20356;-22
2022/07/07 17:05:37;;;;;;;;;;;;;;;;;;4981496;28;19922;-22
2022/07/07 17:08:04;;;;;;;;;;;;;;;;;;4982087;28;19913;-22
2022/07/07 17:10:31;;;;;;;;;;;;;;;;;;4982162;28;19914;-22
2022/07/07 17:12:58;;;;;;;;;;;;;;;;;;4981753;28;19980;-22
2022/07/07 17:15:25;;;;;;;;;;;;;;;;;;4998973;28;19972;-22
2022/07/07 17:17:52;;;;;;;;;;;;;;;;;;4999543;28;19925;-22
2022/07/07 17:20:19;;;;;;;;;;;;;;;;;;4999212;28;19914;-22
2022/07/07 17:22:47;;;;;;;;;;;;;;;;;;4981442;28;20798;-22
2022/07/07 17:25:14;;;;;;;;;;;;;;;;;;4998090;28;19937;-22
2022/07/07 17:27:41;;;;;;;;;;;;;;;;;;4998014;28;19976;-22
2022/07/07 17:30:08;;;;;;;;;;;;;;;;;;4997420;28;19913;-22
2022/07/07 17:32:37;;;;;;;;;;;;;;;;;;4997467;28;20021;-23
2022/07/07 17:35:04;;;;;;;;;;;;;;;;;;4998257;28;19928;-22
2022/07/07 17:37:31;;;;;;;;;;;;;;;;;;4997978;28;19964;-22
2022/07/07 17:39:58;;;;;;;;;;;;;;;;;;4997717;28;19945;-23
2022/07/07 17:42:26;;;;;;;;;;;;;;;;;;4998692;28;19917;-23
2022/07/07 17:44:56;;;;;;;;;;;;;;;;;;4998344;28;20287;-22
2022/07/07 17:47:23;;;;;;;;;;;;;;;;;;4997736;28;19953;-23
2022/07/07 17:52:41;;;;;;;;;;;;;;;;;;4997959;28;19941;-22
2022/07/07 17:55:10;;;;;;;;;;;;;;;;;;4998040;28;20016;-22
2022/07/07 17:57:38;;;;;;;;;;;;;;;;;;4998741;28;19945;-24
2022/07/07 18:00:06;;;;;;;;;;;;;;;;;;4996854;28;19914;-22
2022/07/07 18:02:34;;;;;;;;;;;;;;;;;;4998628;28;19921;-20
2022/07/07 18:05:01;;;;;;;;;;;;;;;;;;4998789;28;19913;-21
2022/07/07 18:07:28;;;;;;;;;;;;;;;;;;4997740;28;19918;-20
2022/07/07 18:09:56;;;;;;;;;;;;;;;;;;4997538;28;19925;-21
2022/07/07 18:12:25;;;;;;;;;;;;;;;;;;4997623;28;19913;-20
2022/07/07 18:14:54;;;;;;;;;;;;;;;;;;4998755;28;19945;-20
2022/07/07 18:17:21;;;;;;;;;;;;;;;;;;5001522;28;19921;-23
2022/07/07 18:19:49;;;;;;;;;;;;;;;;;;5001417;28;19914;-21
2022/07/07 18:22:16;;;;;;;;;;;;;;;;;;5000022;28;20009;-21
2022/07/07 18:24:43;;;;;;;;;;;;;;;;;;5000057;28;20230;-20
2022/07/07 18:27:11;;;;;;;;;;;;;;;;;;5001380;28;19925;-20
2022/07/07 18:29:37;;;;;;;;;;;;;;;;;;5001568;28;19914;-21
2022/07/07 18:32:05;;;;;;;;;;;;;;;;;;5001267;28;19921;-20
2022/07/07 18:34:33;;;;;;;;;;;;;;;;;;5001994;28;20359;-23
2022/07/07 18:37:00;;;;;;;;;;;;;;;;;;5001053;28;20332;-20
2022/07/07 18:39:27;;;;;;;;;;;;;;;;;;5001481;28;19924;-20
2022/07/07 18:41:55;;;;;;;;;;;;;;;;;;4983892;28;19910;-20
2022/07/07 18:44:23;;;;;;;;;;;;;;;;;;5001867;28;19921;-20
2022/07/07 18:46:50;;;;;;;;;;;;;;;;;;4984014;28;19953;-22
2022/07/07 18:49:17;;;;;;;;;;;;;;;;;;5000938;28;19917;-21
2022/07/07 18:51:46;;;;;;;;;;;;;;;;;;5001068;28;19914;-22
2022/07/07 18:54:14;;;;;;;;;;;;;;;;;;5000880;28;19941;-22
2022/07/07 18:56:41;;;;;;;;;;;;;;;;;;5000975;28;20241;-22
2022/07/07 18:59:07;;;;;;;;;;;;;;;;;;4983303;28;19980;-22
2022/07/07 19:01:35;;;;;;;;;;;;;;;;;;5000340;28;19909;-22
2022/07/07 19:04:17;;;;;;;;;;;;;;;;;;4983845;28;19997;-22
2022/07/07 19:06:45;;;;;;;;;;;;;;;;;;4984060;28;19921;-22
2022/07/07 19:09:13;;;;;;;;;;;;;;;;;;4983792;28;19914;-22
2022/07/07 19:11:40;;;;;;;;;;;;;;;;;;5001228;28;20370;-22
2022/07/07 19:14:09;;;;;;;;;;;;;;;;;;5001252;28;19909;-22
2022/07/07 19:16:36;;;;;;;;;;;;;;;;;;5000487;28;20268;-22
2022/07/07 19:19:05;;;;;;;;;;;;;;;;;;4983471;28;19914;-22
2022/07/07 19:21:32;;;;;;;;;;;;;;;;;;5001446;28;19940;-23
2022/07/07 19:23:59;;;;;;;;;;;;;;;;;;4982754;28;20005;-22
2022/07/07 19:26:25;;;;;;;;;;;;;;;;;;4999839;28;20360;-22
2022/07/07 19:28:54;;;;;;;;;;;;;;;;;;5000560;28;19909;-22
2022/07/07 19:31:21;;;;;;;;;;;;;;;;;;4999798;28;19914;-22
2022/07/07 19:33:49;;;;;;;;;;;;;;;;;;5000180;28;19920;-22
2022/07/07 19:36:16;;;;;;;;;;;;;;;;;;5001474;28;19941;-22
2022/07/07 19:38:43;;;;;;;;;;;;;;;;;;5000585;28;19917;-21
2022/07/07 19:55:26;;;;;;;;;;;;;;;;;;5018310;28;19931;-24
2022/07/07 19:57:53;;;;;;;;;;;;;;;;;;5016989;28;19936;-24
2022/07/07 20:00:20;;;;;;;;;;;;;;;;;;5018940;28;20312;-24
2022/07/07 20:02:47;;;;;;;;;;;;;;;;;;5018265;28;19913;-24
2022/07/07 20:05:17;;;;;;;;;;;;;;;;;;5001867;28;19921;-24
2022/07/07 20:07:45;;;;;;;;;;;;;;;;;;5018651;28;19972;-24
2022/07/07 20:10:12;;;;;;;;;;;;;;;;;;5001813;28;19925;-24
2022/07/07 20:12:38;;;;;;;;;;;;;;;;;;5018626;28;20178;-25
2022/07/07 20:15:05;;;;;;;;;;;;;;;;;;5001061;28;19920;-25
2022/07/07 20:17:36;;;;;;;;;;;;;;;;;;5000642;28;19917;-24
2022/07/07 20:20:02;;;;;;;;;;;;;;;;;;5018427;28;19929;-25
2022/07/07 20:22:30;;;;;;;;;;;;;;;;;;5018121;28;19955;-25
2022/07/07 20:24:57;;;;;;;;;;;;;;;;;;5019021;28;19968;-25
2022/07/07 20:27:27;;;;;;;;;;;;;;;;;;5018552;28;19910;-25
2022/07/07 20:29:56;;;;;;;;;;;;;;;;;;5018259;28;20003;-25
2022/07/07 20:32:22;;;;;;;;;;;;;;;;;;5000678;28;19924;-26
2022/07/07 20:34:50;;;;;;;;;;;;;;;;;;5001157;28;19910;-25
2022/07/07 20:37:17;;;;;;;;;;;;;;;;;;5000601;28;19933;-25
2022/07/07 20:39:44;;;;;;;;;;;;;;;;;;5017589;28;20354;-25
2022/07/07 20:42:11;;;;;;;;;;;;;;;;;;5017676;28;19940;-25
2022/07/07 20:44:37;;;;;;;;;;;;;;;;;;5000471;28;19913;-25
2022/07/07 20:47:04;;;;;;;;;;;;;;;;;;5000961;28;19909;-25
2022/07/07 20:49:31;;;;;;;;;;;;;;;;;;5000999;28;19913;-25
2022/07/07 20:57:34;;;;;;;;;;;;;;;;;;5018003;28;19979;-23
2022/07/07 21:00:01;;;;;;;;;;;;;;;;;;5000935;28;19977;-25
2022/07/07 21:02:28;;;;;;;;;;;;;;;;;;5017701;28;19913;-25
2022/07/07 21:04:55;;;;;;;;;;;;;;;;;;5018088;28;19921;-25
2022/07/07 21:07:22;;;;;;;;;;;;;;;;;;5018222;28;19925;-25
2022/07/07 21:09:50;;;;;;;;;;;;;;;;;;5000073;28;19956;-26
2022/07/07 21:12:17;;;;;;;;;;;;;;;;;;5000262;28;19914;-26
2022/07/07 21:14:45;;;;;;;;;;;;;;;;;;5017859;28;19920;-25
2022/07/07 21:17:12;;;;;;;;;;;;;;;;;;5017522;28;19909;-27
2022/07/07 21:19:38;;;;;;;;;;;;;;;;;;5017814;28;20244;-25
2022/07/07 21:22:05;;;;;;;;;;;;;;;;;;5017336;28;20305;-25
2022/07/07 21:24:33;;;;;;;;;;;;;;;;;;4999912;28;19971;-25
2022/07/07 21:27:00;;;;;;;;;;;;;;;;;;5018039;28;20325;-26
2022/07/07 21:29:27;;;;;;;;;;;;;;;;;;5017026;28;20000;-25
2022/07/07 21:31:54;;;;;;;;;;;;;;;;;;4999783;28;19945;-25
2022/07/07 21:34:21;;;;;;;;;;;;;;;;;;5000082;28;19913;-25
2022/07/07 21:36:48;;;;;;;;;;;;;;;;;;5016949;28;19959;-25
2022/07/07 21:39:15;;;;;;;;;;;;;;;;;;5017252;28;20408;-26
2022/07/07 21:41:42;;;;;;;;;;;;;;;;;;4999887;28;19913;-26
2022/07/07 21:44:11;;;;;;;;;;;;;;;;;;5017649;28;20283;-26
2022/07/07 21:46:37;;;;;;;;;;;;;;;;;;5017700;28;20012;-25
2022/07/07 21:49:04;;;;;;;;;;;;;;;;;;5000275;28;19913;-26
2022/07/07 21:51:31;;;;;;;;;;;;;;;;;;5017127;28;19920;-26
2022/07/07 21:53:58;;;;;;;;;;;;;;;;;;5017193;28;20422;-25
2022/07/07 21:56:24;;;;;;;;;;;;;;;;;;4999596;28;19924;-25
2022/07/07 21:58:51;;;;;;;;;;;;;;;;;;4999878;28;19917;-25
2022/07/07 22:01:18;;;;;;;;;;;;;;;;;;5017435;28;19945;-25
2022/07/07 22:09:16;;;;;;;;;;;;;;;;;;5017410;28;20010;-26
2022/07/07 22:11:43;;;;;;;;;;;;;;;;;;5017272;28;19914;-25
2022/07/07 22:14:10;;;;;;;;;;;;;;;;;;4999844;28;19968;-25
2022/07/07 22:16:37;;;;;;;;;;;;;;;;;;5017069;28;19913;-25
2022/07/07 22:19:04;;;;;;;;;;;;;;;;;;5016747;28;20306;-25
2022/07/07 22:21:31;;;;;;;;;;;;;;;;;;5016876;28;19996;-25
2022/07/07 22:23:57;;;;;;;;;;;;;;;;;;5016849;28;19913;-25
2022/07/07 22:26:25;;;;;;;;;;;;;;;;;;5016941;28;19910;-25
2022/07/07 22:28:52;;;;;;;;;;;;;;;;;;5016952;28;20359;-25
2022/07/07 22:31:23;;;;;;;;;;;;;;;;;;4999747;28;19975;-25
2022/07/07 22:33:50;;;;;;;;;;;;;;;;;;5000363;28;20048;-25
2022/07/07 22:36:16;;;;;;;;;;;;;;;;;;5016854;28;19971;-25
2022/07/07 22:38:43;;;;;;;;;;;;;;;;;;5017250;28;19964;-26